sensor_id;sensor_type;location;lat;lon;timestamp;pressure;altitude;pressure_sealevel;temperature;humidity
12358;BME280;6243;51.244;6.774;2023-09-19T00:02:04;115150.97;;;-141.28;43.34
12358;BME280;6243;51.244;6.774;2023-09-19T00:04:32;115150.97;;;-141.28;42.83
12358;BME280;6243;51.244;6.774;2023-09-19T00:06:58;115150.97;;;-141.28;42.91
12358;BME280;6243;51.244;6.774;2023-09-19T00:09:23;115150.97;;;-141.28;42.18
12358;BME280;6243;51.244;6.774;2023-09-19T00:11:49;115150.97;;;-141.28;42.48
12358;BME280;6243;51.244;6.774;2023-09-19T00:14:15;115150.97;;;-141.28;42.99
12358;BME280;6243;51.244;6.774;2023-09-19T00:16:41;115150.97;;;-141.28;42.66
12358;BME280;6243;51.244;6.774;2023-09-19T00:19:06;115150.97;;;-141.28;42.22
12358;BME280;6243;51.244;6.774;2023-09-19T00:21:33;115150.97;;;-141.28;42.34
12358;BME280;6243;51.244;6.774;2023-09-19T00:23:59;115150.97;;;-141.28;42.45
12358;BME280;6243;51.244;6.774;2023-09-19T00:26:25;115150.97;;;-141.28;42.68
12358;BME280;6243;51.244;6.774;2023-09-19T00:28:52;115150.97;;;-141.28;42.92
12358;BME280;6243;51.244;6.774;2023-09-19T00:31:18;115150.97;;;-141.28;42.50
12358;BME280;6243;51.244;6.774;2023-09-19T00:33:44;115150.97;;;-141.28;43.13
12358;BME280;6243;51.244;6.774;2023-09-19T00:36:09;115150.97;;;-141.28;43.34
12358;BME280;6243;51.244;6.774;2023-09-19T00:38:36;115150.97;;;-141.28;42.91
12358;BME280;6243;51.244;6.774;2023-09-19T00:41:02;115150.97;;;-141.28;43.45
12358;BME280;6243;51.244;6.774;2023-09-19T00:43:27;115150.97;;;-141.28;43.17
12358;BME280;6243;51.244;6.774;2023-09-19T00:45:54;115150.97;;;-141.28;43.42
12358;BME280;6243;51.244;6.774;2023-09-19T00:48:21;115150.97;;;-141.28;42.99
12358;BME280;6243;51.244;6.774;2023-09-19T00:50:47;115150.97;;;-141.28;43.06
12358;BME280;6243;51.244;6.774;2023-09-19T00:53:15;115150.97;;;-141.28;44.05
12358;BME280;6243;51.244;6.774;2023-09-19T00:55:44;115150.97;;;-141.28;43.75
12358;BME280;6243;51.244;6.774;2023-09-19T00:58:10;115150.97;;;-141.28;43.41
12358;BME280;6243;51.244;6.774;2023-09-19T01:00:36;115150.97;;;-141.28;43.74
12358;BME280;6243;51.244;6.774;2023-09-19T01:03:02;115150.97;;;-141.28;43.01
12358;BME280;6243;51.244;6.774;2023-09-19T01:05:28;115150.97;;;-141.28;42.70
12358;BME280;6243;51.244;6.774;2023-09-19T01:07:54;115150.97;;;-141.28;42.83
12358;BME280;6243;51.244;6.774;2023-09-19T01:10:21;115150.97;;;-141.28;43.46
12358;BME280;6243;51.244;6.774;2023-09-19T01:12:55;115150.97;;;-141.28;43.38
12358;BME280;6243;51.244;6.774;2023-09-19T01:15:34;115150.97;;;-141.28;43.32
12358;BME280;6243;51.244;6.774;2023-09-19T01:18:11;115150.97;;;-141.28;43.51
12358;BME280;6243;51.244;6.774;2023-09-19T01:20:45;115150.97;;;-141.28;43.44
12358;BME280;6243;51.244;6.774;2023-09-19T01:23:20;115150.97;;;-141.28;44.42
12358;BME280;6243;51.244;6.774;2023-09-19T01:26:18;115150.97;;;-141.28;43.51
12358;BME280;6243;51.244;6.774;2023-09-19T01:29:17;115150.97;;;-141.28;43.90
12358;BME280;6243;51.244;6.774;2023-09-19T01:31:51;115150.97;;;-141.28;43.69
12358;BME280;6243;51.244;6.774;2023-09-19T01:34:18;115150.97;;;-141.28;43.57
12358;BME280;6243;51.244;6.774;2023-09-19T01:36:44;115150.97;;;-141.28;43.82
12358;BME280;6243;51.244;6.774;2023-09-19T01:39:10;115150.97;;;-141.28;43.63
12358;BME280;6243;51.244;6.774;2023-09-19T01:41:47;115150.97;;;-141.28;43.71
12358;BME280;6243;51.244;6.774;2023-09-19T01:44:22;115150.97;;;-141.28;43.28
12358;BME280;6243;51.244;6.774;2023-09-19T01:46:51;115150.97;;;-141.28;43.21
12358;BME280;6243;51.244;6.774;2023-09-19T01:49:27;115150.97;;;-141.28;43.20
12358;BME280;6243;51.244;6.774;2023-09-19T01:52:02;115150.97;;;-141.28;43.77
12358;BME280;6243;51.244;6.774;2023-09-19T01:54:33;115150.97;;;-141.28;43.26
12358;BME280;6243;51.244;6.774;2023-09-19T01:57:05;115150.97;;;-141.28;43.35
12358;BME280;6243;51.244;6.774;2023-09-19T01:59:36;115150.97;;;-141.28;43.25
12358;BME280;6243;51.244;6.774;2023-09-19T02:02:06;115150.97;;;-141.28;43.64
12358;BME280;6243;51.244;6.774;2023-09-19T02:04:32;115150.97;;;-141.28;43.26
12358;BME280;6243;51.244;6.774;2023-09-19T02:06:58;115150.97;;;-141.28;42.58
12358;BME280;6243;51.244;6.774;2023-09-19T02:09:24;115150.97;;;-141.28;42.97
12358;BME280;6243;51.244;6.774;2023-09-19T02:11:51;115150.97;;;-141.28;43.23
12358;BME280;6243;51.244;6.774;2023-09-19T02:14:16;115150.97;;;-141.28;43.17
12358;BME280;6243;51.244;6.774;2023-09-19T02:16:42;115150.97;;;-141.28;43.16
12358;BME280;6243;51.244;6.774;2023-09-19T02:19:09;115150.97;;;-141.28;42.95
12358;BME280;6243;51.244;6.774;2023-09-19T02:21:35;115150.97;;;-141.28;42.85
12358;BME280;6243;51.244;6.774;2023-09-19T02:24:00;115150.97;;;-141.28;42.76
12358;BME280;6243;51.244;6.774;2023-09-19T02:26:26;115150.97;;;-141.28;43.29
12358;BME280;6243;51.244;6.774;2023-09-19T02:28:52;115150.97;;;-141.28;42.46
12358;BME280;6243;51.244;6.774;2023-09-19T02:31:17;115150.97;;;-141.28;42.82
12358;BME280;6243;51.244;6.774;2023-09-19T02:33:43;115150.97;;;-141.28;43.07
12358;BME280;6243;51.244;6.774;2023-09-19T02:36:10;115150.97;;;-141.28;42.17
12358;BME280;6243;51.244;6.774;2023-09-19T02:38:36;115150.97;;;-141.28;41.47
12358;BME280;6243;51.244;6.774;2023-09-19T02:41:01;115150.97;;;-141.28;41.55
12358;BME280;6243;51.244;6.774;2023-09-19T02:43:27;115150.97;;;-141.28;41.67
12358;BME280;6243;51.244;6.774;2023-09-19T02:45:53;115150.97;;;-141.28;41.70
12358;BME280;6243;51.244;6.774;2023-09-19T02:48:19;115150.97;;;-141.28;41.84
12358;BME280;6243;51.244;6.774;2023-09-19T02:50:45;115150.97;;;-141.28;41.79
12358;BME280;6243;51.244;6.774;2023-09-19T02:53:12;115150.97;;;-141.28;41.48
12358;BME280;6243;51.244;6.774;2023-09-19T02:55:38;115150.97;;;-141.28;41.79
12358;BME280;6243;51.244;6.774;2023-09-19T02:58:03;115150.97;;;-141.28;41.43
12358;BME280;6243;51.244;6.774;2023-09-19T03:00:29;115150.97;;;-141.28;41.37
12358;BME280;6243;51.244;6.774;2023-09-19T03:02:55;115150.97;;;-141.28;41.48
12358;BME280;6243;51.244;6.774;2023-09-19T03:05:22;115150.97;;;-141.28;42.03
12358;BME280;6243;51.244;6.774;2023-09-19T03:07:48;115150.97;;;-141.28;41.89
12358;BME280;6243;51.244;6.774;2023-09-19T03:10:15;115150.97;;;-141.28;41.95
12358;BME280;6243;51.244;6.774;2023-09-19T03:12:40;115150.97;;;-141.28;42.14
12358;BME280;6243;51.244;6.774;2023-09-19T03:15:07;115150.97;;;-141.28;42.04
12358;BME280;6243;51.244;6.774;2023-09-19T03:17:32;115150.97;;;-141.28;41.87
12358;BME280;6243;51.244;6.774;2023-09-19T03:19:58;115150.97;;;-141.28;41.76
12358;BME280;6243;51.244;6.774;2023-09-19T03:22:23;115150.97;;;-141.28;41.60
12358;BME280;6243;51.244;6.774;2023-09-19T03:24:49;115150.97;;;-141.28;41.49
12358;BME280;6243;51.244;6.774;2023-09-19T03:27:16;115150.97;;;-141.28;42.17
12358;BME280;6243;51.244;6.774;2023-09-19T03:29:42;115150.97;;;-141.28;41.89
12358;BME280;6243;51.244;6.774;2023-09-19T03:32:08;115150.97;;;-141.28;41.31
12358;BME280;6243;51.244;6.774;2023-09-19T03:34:33;115150.97;;;-141.28;41.34
12358;BME280;6243;51.244;6.774;2023-09-19T03:37:01;115150.97;;;-141.28;41.39
12358;BME280;6243;51.244;6.774;2023-09-19T03:39:27;115150.97;;;-141.28;40.98
12358;BME280;6243;51.244;6.774;2023-09-19T03:41:52;115150.97;;;-141.28;41.14
12358;BME280;6243;51.244;6.774;2023-09-19T03:44:19;115150.97;;;-141.28;41.98
12358;BME280;6243;51.244;6.774;2023-09-19T03:46:45;115150.97;;;-141.28;42.10
12358;BME280;6243;51.244;6.774;2023-09-19T03:49:10;115150.97;;;-141.28;41.80
12358;BME280;6243;51.244;6.774;2023-09-19T03:51:36;115150.97;;;-141.28;41.98
12358;BME280;6243;51.244;6.774;2023-09-19T03:54:02;115150.97;;;-141.28;42.04
12358;BME280;6243;51.244;6.774;2023-09-19T03:56:27;115150.97;;;-141.28;41.95
12358;BME280;6243;51.244;6.774;2023-09-19T03:58:53;115150.97;;;-141.28;42.11
12358;BME280;6243;51.244;6.774;2023-09-19T04:01:20;115150.97;;;-141.28;41.94
12358;BME280;6243;51.244;6.774;2023-09-19T04:03:46;115150.97;;;-141.28;41.90
12358;BME280;6243;51.244;6.774;2023-09-19T04:06:12;115150.97;;;-141.28;42.16
12358;BME280;6243;51.244;6.774;2023-09-19T04:08:37;115150.97;;;-141.28;41.98
12358;BME280;6243;51.244;6.774;2023-09-19T04:11:03;115150.97;;;-141.28;42.36
12358;BME280;6243;51.244;6.774;2023-09-19T04:13:28;115150.97;;;-141.28;42.43
12358;BME280;6243;51.244;6.774;2023-09-19T04:15:54;115150.97;;;-141.28;42.05
12358;BME280;6243;51.244;6.774;2023-09-19T04:18:21;115150.97;;;-141.28;42.33
12358;BME280;6243;51.244;6.774;2023-09-19T04:20:48;115150.97;;;-141.28;42.35
12358;BME280;6243;51.244;6.774;2023-09-19T04:23:14;115150.97;;;-141.28;42.54
12358;BME280;6243;51.244;6.774;2023-09-19T04:25:40;115150.97;;;-141.28;42.65
12358;BME280;6243;51.244;6.774;2023-09-19T04:28:06;115150.97;;;-141.28;42.38
12358;BME280;6243;51.244;6.774;2023-09-19T04:30:31;115150.97;;;-141.28;42.57
12358;BME280;6243;51.244;6.774;2023-09-19T04:32:57;115150.97;;;-141.28;42.43
12358;BME280;6243;51.244;6.774;2023-09-19T04:35:24;115150.97;;;-141.28;42.54
12358;BME280;6243;51.244;6.774;2023-09-19T04:37:50;115150.97;;;-141.28;42.07
12358;BME280;6243;51.244;6.774;2023-09-19T04:40:16;115150.97;;;-141.28;42.19
12358;BME280;6243;51.244;6.774;2023-09-19T04:42:42;115150.97;;;-141.28;42.51
12358;BME280;6243;51.244;6.774;2023-09-19T04:45:08;115150.97;;;-141.28;42.70
12358;BME280;6243;51.244;6.774;2023-09-19T04:47:34;115150.97;;;-141.28;42.33
12358;BME280;6243;51.244;6.774;2023-09-19T04:49:59;115150.97;;;-141.28;42.44
12358;BME280;6243;51.244;6.774;2023-09-19T04:52:26;115150.97;;;-141.28;42.43
12358;BME280;6243;51.244;6.774;2023-09-19T04:54:52;115150.97;;;-141.28;42.96
12358;BME280;6243;51.244;6.774;2023-09-19T04:57:17;115150.97;;;-141.28;42.63
12358;BME280;6243;51.244;6.774;2023-09-19T04:59:43;115150.97;;;-141.28;42.71
12358;BME280;6243;51.244;6.774;2023-09-19T05:02:09;115150.97;;;-141.28;42.45
12358;BME280;6243;51.244;6.774;2023-09-19T05:04:34;115150.97;;;-141.28;42.08
12358;BME280;6243;51.244;6.774;2023-09-19T05:07:00;115150.97;;;-141.28;42.26
12358;BME280;6243;51.244;6.774;2023-09-19T05:09:27;115150.97;;;-141.28;42.81
12358;BME280;6243;51.244;6.774;2023-09-19T05:11:53;115150.97;;;-141.28;42.49
12358;BME280;6243;51.244;6.774;2023-09-19T05:14:18;115150.97;;;-141.28;42.26
12358;BME280;6243;51.244;6.774;2023-09-19T05:16:44;115150.97;;;-141.28;42.02
12358;BME280;6243;51.244;6.774;2023-09-19T05:19:09;115150.97;;;-141.28;42.74
12358;BME280;6243;51.244;6.774;2023-09-19T05:21:36;115150.97;;;-141.28;42.46
12358;BME280;6243;51.244;6.774;2023-09-19T05:24:01;115150.97;;;-141.28;41.98
12358;BME280;6243;51.244;6.774;2023-09-19T05:26:28;115150.97;;;-141.28;42.22
12358;BME280;6243;51.244;6.774;2023-09-19T05:28:54;115150.97;;;-141.28;42.10
12358;BME280;6243;51.244;6.774;2023-09-19T05:31:20;115150.97;;;-141.28;41.84
12358;BME280;6243;51.244;6.774;2023-09-19T05:33:45;115150.97;;;-141.28;42.06
12358;BME280;6243;51.244;6.774;2023-09-19T05:36:11;115150.97;;;-141.28;42.26
12358;BME280;6243;51.244;6.774;2023-09-19T05:38:37;115150.97;;;-141.28;42.12
12358;BME280;6243;51.244;6.774;2023-09-19T05:41:02;115150.97;;;-141.28;42.38
12358;BME280;6243;51.244;6.774;2023-09-19T05:43:29;115150.97;;;-141.28;42.20
12358;BME280;6243;51.244;6.774;2023-09-19T05:45:55;115150.97;;;-141.28;41.78
12358;BME280;6243;51.244;6.774;2023-09-19T05:48:20;115150.97;;;-141.28;41.61
12358;BME280;6243;51.244;6.774;2023-09-19T05:50:46;115150.97;;;-141.28;42.36
12358;BME280;6243;51.244;6.774;2023-09-19T05:53:12;115150.97;;;-141.28;41.90
12358;BME280;6243;51.244;6.774;2023-09-19T05:55:37;115150.97;;;-141.28;42.10
12358;BME280;6243;51.244;6.774;2023-09-19T05:58:03;115150.97;;;-141.28;41.99
12358;BME280;6243;51.244;6.774;2023-09-19T06:00:30;115150.97;;;-141.28;41.98
12358;BME280;6243;51.244;6.774;2023-09-19T06:02:57;115150.97;;;-141.28;41.82
12358;BME280;6243;51.244;6.774;2023-09-19T06:05:23;115150.97;;;-141.28;42.08
12358;BME280;6243;51.244;6.774;2023-09-19T06:07:50;115150.97;;;-141.28;41.67
12358;BME280;6243;51.244;6.774;2023-09-19T06:10:16;115150.97;;;-141.28;41.90
12358;BME280;6243;51.244;6.774;2023-09-19T06:12:42;115150.97;;;-141.28;41.70
12358;BME280;6243;51.244;6.774;2023-09-19T06:15:08;115150.97;;;-141.28;42.08
12358;BME280;6243;51.244;6.774;2023-09-19T06:17:35;115150.97;;;-141.28;41.90
12358;BME280;6243;51.244;6.774;2023-09-19T06:20:01;115150.97;;;-141.28;42.53
12358;BME280;6243;51.244;6.774;2023-09-19T06:22:27;115150.97;;;-141.28;42.49
12358;BME280;6243;51.244;6.774;2023-09-19T06:24:52;115150.97;;;-141.28;42.24
12358;BME280;6243;51.244;6.774;2023-09-19T06:27:18;115150.97;;;-141.28;42.06
12358;BME280;6243;51.244;6.774;2023-09-19T06:29:44;115150.97;;;-141.28;41.69
12358;BME280;6243;51.244;6.774;2023-09-19T06:32:09;115150.97;;;-141.28;42.25
12358;BME280;6243;51.244;6.774;2023-09-19T06:34:36;115150.97;;;-141.28;42.21
12358;BME280;6243;51.244;6.774;2023-09-19T06:37:02;115150.97;;;-141.28;42.15
12358;BME280;6243;51.244;6.774;2023-09-19T06:39:28;115150.97;;;-141.28;41.98
12358;BME280;6243;51.244;6.774;2023-09-19T06:41:54;115150.97;;;-141.28;41.83
12358;BME280;6243;51.244;6.774;2023-09-19T06:44:19;115150.97;;;-141.28;41.53
12358;BME280;6243;51.244;6.774;2023-09-19T06:46:45;115150.97;;;-141.28;41.77
12358;BME280;6243;51.244;6.774;2023-09-19T06:49:11;115150.97;;;-141.28;41.70
12358;BME280;6243;51.244;6.774;2023-09-19T06:51:38;115150.97;;;-141.28;42.12
12358;BME280;6243;51.244;6.774;2023-09-19T06:54:03;115150.97;;;-141.28;42.03
12358;BME280;6243;51.244;6.774;2023-09-19T06:56:29;115150.97;;;-141.28;42.22
12358;BME280;6243;51.244;6.774;2023-09-19T06:58:55;115150.97;;;-141.28;42.48
12358;BME280;6243;51.244;6.774;2023-09-19T07:01:20;115150.97;;;-141.28;42.44
12358;BME280;6243;51.244;6.774;2023-09-19T07:03:46;115150.97;;;-141.28;42.29
12358;BME280;6243;51.244;6.774;2023-09-19T07:06:12;115150.97;;;-141.28;42.28
12358;BME280;6243;51.244;6.774;2023-09-19T07:08:39;115150.97;;;-141.28;42.15
12358;BME280;6243;51.244;6.774;2023-09-19T07:11:04;115150.97;;;-141.28;41.90
12358;BME280;6243;51.244;6.774;2023-09-19T07:13:30;115150.97;;;-141.28;42.32
12358;BME280;6243;51.244;6.774;2023-09-19T07:15:58;115150.97;;;-141.28;41.89
12358;BME280;6243;51.244;6.774;2023-09-19T07:18:23;115150.97;;;-141.28;42.33
12358;BME280;6243;51.244;6.774;2023-09-19T07:20:49;115150.97;;;-141.28;42.42
12358;BME280;6243;51.244;6.774;2023-09-19T07:23:15;115150.97;;;-141.28;43.06
12358;BME280;6243;51.244;6.774;2023-09-19T07:25:42;115150.97;;;-141.28;42.76
12358;BME280;6243;51.244;6.774;2023-09-19T07:28:08;115150.97;;;-141.28;42.34
12358;BME280;6243;51.244;6.774;2023-09-19T07:30:36;115150.97;;;-141.28;42.30
12358;BME280;6243;51.244;6.774;2023-09-19T07:33:01;115150.97;;;-141.28;42.24
12358;BME280;6243;51.244;6.774;2023-09-19T07:35:27;115150.97;;;-141.28;42.41
12358;BME280;6243;51.244;6.774;2023-09-19T07:37:53;115150.97;;;-141.28;42.04
12358;BME280;6243;51.244;6.774;2023-09-19T07:40:19;115150.97;;;-141.28;42.38
12358;BME280;6243;51.244;6.774;2023-09-19T07:42:46;115150.97;;;-141.28;42.63
12358;BME280;6243;51.244;6.774;2023-09-19T07:45:12;115150.97;;;-141.28;42.83
12358;BME280;6243;51.244;6.774;2023-09-19T07:47:38;115150.97;;;-141.28;42.18
12358;BME280;6243;51.244;6.774;2023-09-19T07:50:04;115150.97;;;-141.28;42.70
12358;BME280;6243;51.244;6.774;2023-09-19T07:52:30;115150.97;;;-141.28;42.93
12358;BME280;6243;51.244;6.774;2023-09-19T07:54:55;115150.97;;;-141.28;42.24
12358;BME280;6243;51.244;6.774;2023-09-19T07:57:21;115150.97;;;-141.28;42.53
12358;BME280;6243;51.244;6.774;2023-09-19T07:59:48;115150.97;;;-141.28;41.83
12358;BME280;6243;51.244;6.774;2023-09-19T08:02:14;115150.97;;;-141.28;42.14
12358;BME280;6243;51.244;6.774;2023-09-19T08:04:39;115150.97;;;-141.28;42.05
12358;BME280;6243;51.244;6.774;2023-09-19T08:07:05;115150.97;;;-141.28;41.76
12358;BME280;6243;51.244;6.774;2023-09-19T08:09:31;115150.97;;;-141.28;41.74
12358;BME280;6243;51.244;6.774;2023-09-19T08:11:56;115150.97;;;-141.28;41.79
12358;BME280;6243;51.244;6.774;2023-09-19T08:14:22;115150.97;;;-141.28;41.64
12358;BME280;6243;51.244;6.774;2023-09-19T08:16:49;115150.97;;;-141.28;42.05
12358;BME280;6243;51.244;6.774;2023-09-19T08:19:15;115150.97;;;-141.28;41.47
12358;BME280;6243;51.244;6.774;2023-09-19T08:21:40;115150.97;;;-141.28;41.27
12358;BME280;6243;51.244;6.774;2023-09-19T08:24:06;115150.97;;;-141.28;41.78
12358;BME280;6243;51.244;6.774;2023-09-19T08:26:32;115150.97;;;-141.28;41.48
12358;BME280;6243;51.244;6.774;2023-09-19T08:28:57;115150.97;;;-141.28;41.04
12358;BME280;6243;51.244;6.774;2023-09-19T08:31:23;115150.97;;;-141.28;41.04
12358;BME280;6243;51.244;6.774;2023-09-19T08:33:50;115150.97;;;-141.28;41.12
12358;BME280;6243;51.244;6.774;2023-09-19T08:36:16;115150.97;;;-141.28;40.66
12358;BME280;6243;51.244;6.774;2023-09-19T08:38:41;115150.97;;;-141.28;41.20
12358;BME280;6243;51.244;6.774;2023-09-19T08:41:07;115150.97;;;-141.28;41.17
12358;BME280;6243;51.244;6.774;2023-09-19T08:43:33;115150.97;;;-141.28;40.57
12358;BME280;6243;51.244;6.774;2023-09-19T08:46:10;115150.97;;;-141.28;40.76
12358;BME280;6243;51.244;6.774;2023-09-19T08:48:39;115150.97;;;-141.28;40.44
12358;BME280;6243;51.244;6.774;2023-09-19T08:51:07;115150.97;;;-141.28;39.77
12358;BME280;6243;51.244;6.774;2023-09-19T08:53:39;115150.97;;;-141.28;39.97
12358;BME280;6243;51.244;6.774;2023-09-19T08:56:09;115150.97;;;-141.28;39.94
12358;BME280;6243;51.244;6.774;2023-09-19T08:58:45;115150.97;;;-141.28;40.44
12358;BME280;6243;51.244;6.774;2023-09-19T09:01:13;115150.97;;;-141.28;39.98
12358;BME280;6243;51.244;6.774;2023-09-19T09:03:40;115150.97;;;-141.28;39.07
12358;BME280;6243;51.244;6.774;2023-09-19T09:06:09;115150.97;;;-141.28;39.46
12358;BME280;6243;51.244;6.774;2023-09-19T09:08:36;115150.97;;;-141.28;39.25
12358;BME280;6243;51.244;6.774;2023-09-19T09:11:02;115150.97;;;-141.28;39.27
12358;BME280;6243;51.244;6.774;2023-09-19T09:13:28;115150.97;;;-141.28;38.96
12358;BME280;6243;51.244;6.774;2023-09-19T09:15:54;115150.97;;;-141.28;39.25
12358;BME280;6243;51.244;6.774;2023-09-19T09:18:20;115150.97;;;-141.28;39.09
12358;BME280;6243;51.244;6.774;2023-09-19T09:20:45;115150.97;;;-141.28;39.00
12358;BME280;6243;51.244;6.774;2023-09-19T09:23:12;115150.97;;;-141.28;38.55
12358;BME280;6243;51.244;6.774;2023-09-19T09:25:48;115150.97;;;-141.28;38.94
12358;BME280;6243;51.244;6.774;2023-09-19T09:28:19;115150.97;;;-141.28;38.61
12358;BME280;6243;51.244;6.774;2023-09-19T09:30:45;115150.97;;;-141.28;38.99
12358;BME280;6243;51.244;6.774;2023-09-19T09:33:11;115150.97;;;-141.28;38.57
12358;BME280;6243;51.244;6.774;2023-09-19T09:35:37;115150.97;;;-141.28;38.43
12358;BME280;6243;51.244;6.774;2023-09-19T09:38:03;115150.97;;;-141.28;38.37
12358;BME280;6243;51.244;6.774;2023-09-19T09:40:45;115150.97;;;-141.28;38.51
12358;BME280;6243;51.244;6.774;2023-09-19T09:43:25;115150.97;;;-141.28;38.69
12358;BME280;6243;51.244;6.774;2023-09-19T09:46:06;115150.97;;;-141.28;37.98
12358;BME280;6243;51.244;6.774;2023-09-19T09:48:32;115150.97;;;-141.28;37.79
12358;BME280;6243;51.244;6.774;2023-09-19T09:50:58;115150.97;;;-141.28;38.08
12358;BME280;6243;51.244;6.774;2023-09-19T09:53:26;115150.97;;;-141.28;38.08
12358;BME280;6243;51.244;6.774;2023-09-19T09:56:01;115150.97;;;-141.28;37.97
12358;BME280;6243;51.244;6.774;2023-09-19T09:58:27;115150.97;;;-141.28;38.00
12358;BME280;6243;51.244;6.774;2023-09-19T10:00:53;115150.97;;;-141.28;37.80
12358;BME280;6243;51.244;6.774;2023-09-19T10:03:19;115150.97;;;-141.28;38.68
12358;BME280;6243;51.244;6.774;2023-09-19T10:05:45;115150.97;;;-141.28;37.60
12358;BME280;6243;51.244;6.774;2023-09-19T10:08:11;115150.97;;;-141.28;37.47
12358;BME280;6243;51.244;6.774;2023-09-19T10:10:39;115150.97;;;-141.28;36.97
12358;BME280;6243;51.244;6.774;2023-09-19T10:13:07;115150.97;;;-141.28;37.19
12358;BME280;6243;51.244;6.774;2023-09-19T10:15:33;115150.97;;;-141.28;36.80
12358;BME280;6243;51.244;6.774;2023-09-19T10:18:00;115150.97;;;-141.28;36.91
12358;BME280;6243;51.244;6.774;2023-09-19T10:20:28;115150.97;;;-141.28;37.06
12358;BME280;6243;51.244;6.774;2023-09-19T10:22:54;115150.97;;;-141.28;36.74
12358;BME280;6243;51.244;6.774;2023-09-19T10:25:20;115150.97;;;-141.28;37.19
12358;BME280;6243;51.244;6.774;2023-09-19T10:27:46;115150.97;;;-141.28;36.81
12358;BME280;6243;51.244;6.774;2023-09-19T10:30:13;115150.97;;;-141.28;36.83
12358;BME280;6243;51.244;6.774;2023-09-19T10:32:40;115150.97;;;-141.28;36.71
12358;BME280;6243;51.244;6.774;2023-09-19T10:35:07;115150.97;;;-141.28;36.50
12358;BME280;6243;51.244;6.774;2023-09-19T10:37:34;115150.97;;;-141.28;36.20
12358;BME280;6243;51.244;6.774;2023-09-19T10:40:01;115150.97;;;-141.28;36.20
12358;BME280;6243;51.244;6.774;2023-09-19T10:42:26;115150.97;;;-141.28;36.36
12358;BME280;6243;51.244;6.774;2023-09-19T10:44:52;115150.97;;;-141.28;36.57
12358;BME280;6243;51.244;6.774;2023-09-19T10:47:20;115150.97;;;-141.28;36.31
12358;BME280;6243;51.244;6.774;2023-09-19T10:49:46;115150.97;;;-141.28;36.87
12358;BME280;6243;51.244;6.774;2023-09-19T10:52:12;115150.97;;;-141.28;36.41
12358;BME280;6243;51.244;6.774;2023-09-19T10:54:45;115150.97;;;-141.28;36.24
12358;BME280;6243;51.244;6.774;2023-09-19T10:57:12;115150.97;;;-141.28;36.03
12358;BME280;6243;51.244;6.774;2023-09-19T11:00:02;115150.97;;;-141.28;36.25
12358;BME280;6243;51.244;6.774;2023-09-19T11:02:30;115150.97;;;-141.28;36.67
12358;BME280;6243;51.244;6.774;2023-09-19T11:05:11;115150.97;;;-141.28;35.87
12358;BME280;6243;51.244;6.774;2023-09-19T11:07:57;115150.97;;;-141.28;35.98
12358;BME280;6243;51.244;6.774;2023-09-19T11:10:46;115150.97;;;-141.28;36.50
12358;BME280;6243;51.244;6.774;2023-09-19T11:13:25;115150.97;;;-141.28;36.17
12358;BME280;6243;51.244;6.774;2023-09-19T11:16:12;115150.97;;;-141.28;35.69
12358;BME280;6243;51.244;6.774;2023-09-19T11:18:54;115150.97;;;-141.28;35.80
12358;BME280;6243;51.244;6.774;2023-09-19T11:24:31;115150.97;;;-141.28;35.74
12358;BME280;6243;51.244;6.774;2023-09-19T11:27:13;115150.97;;;-141.28;36.09
12358;BME280;6243;51.244;6.774;2023-09-19T11:29:40;115150.97;;;-141.28;35.80
12358;BME280;6243;51.244;6.774;2023-09-19T11:32:06;115150.97;;;-141.28;35.17
12358;BME280;6243;51.244;6.774;2023-09-19T11:34:45;115150.97;;;-141.28;35.39
12358;BME280;6243;51.244;6.774;2023-09-19T11:40:25;115150.97;;;-141.28;35.39
12358;BME280;6243;51.244;6.774;2023-09-19T11:42:51;115150.97;;;-141.28;34.81
12358;BME280;6243;51.244;6.774;2023-09-19T11:48:20;115150.97;;;-141.28;34.77
12358;BME280;6243;51.244;6.774;2023-09-19T11:50:48;115150.97;;;-141.28;34.65
12358;BME280;6243;51.244;6.774;2023-09-19T11:53:14;115150.97;;;-141.28;35.10
12358;BME280;6243;51.244;6.774;2023-09-19T11:55:40;115150.97;;;-141.28;34.65
12358;BME280;6243;51.244;6.774;2023-09-19T11:58:07;115150.97;;;-141.28;34.15
12358;BME280;6243;51.244;6.774;2023-09-19T12:00:34;115150.97;;;-141.28;34.22
12358;BME280;6243;51.244;6.774;2023-09-19T12:03:07;115150.97;;;-141.28;34.66
12358;BME280;6243;51.244;6.774;2023-09-19T12:05:33;115150.97;;;-141.28;34.25
12358;BME280;6243;51.244;6.774;2023-09-19T12:08:00;115150.97;;;-141.28;34.36
12358;BME280;6243;51.244;6.774;2023-09-19T12:10:27;115150.97;;;-141.28;34.30
12358;BME280;6243;51.244;6.774;2023-09-19T12:12:52;115150.97;;;-141.28;33.86
12358;BME280;6243;51.244;6.774;2023-09-19T12:15:23;115150.97;;;-141.28;33.53
12358;BME280;6243;51.244;6.774;2023-09-19T12:17:49;115150.97;;;-141.28;34.19
12358;BME280;6243;51.244;6.774;2023-09-19T12:20:15;115150.97;;;-141.28;34.08
12358;BME280;6243;51.244;6.774;2023-09-19T12:22:41;115150.97;;;-141.28;34.49
12358;BME280;6243;51.244;6.774;2023-09-19T12:25:09;115150.97;;;-141.28;34.03
12358;BME280;6243;51.244;6.774;2023-09-19T12:27:41;115150.97;;;-141.28;33.79
12358;BME280;6243;51.244;6.774;2023-09-19T12:30:08;115150.97;;;-141.28;33.41
12358;BME280;6243;51.244;6.774;2023-09-19T12:32:35;115150.97;;;-141.28;33.47
12358;BME280;6243;51.244;6.774;2023-09-19T12:35:00;115150.97;;;-141.28;33.05
12358;BME280;6243;51.244;6.774;2023-09-19T12:37:26;115150.97;;;-141.28;33.55
12358;BME280;6243;51.244;6.774;2023-09-19T12:39:52;115150.97;;;-141.28;33.37
12358;BME280;6243;51.244;6.774;2023-09-19T12:42:20;115150.97;;;-141.28;33.58
12358;BME280;6243;51.244;6.774;2023-09-19T12:44:48;115150.97;;;-141.28;33.39
12358;BME280;6243;51.244;6.774;2023-09-19T12:47:15;115150.97;;;-141.28;33.43
12358;BME280;6243;51.244;6.774;2023-09-19T12:50:07;115150.97;;;-141.28;33.67
12358;BME280;6243;51.244;6.774;2023-09-19T12:52:36;115150.97;;;-141.28;33.64